Fayette, Missouri
Current Conditions -  °F | °C
As of 10:15 PM on Tuesday 21 Oct 2014 (Local Time) from KVER Reporting Station
Haze Haze  
Wind Chill: 54°   Ceiling: 500
Heat Index: 54°   Visibility: 0.5mi
Dew Point: 43°   Wind: 6mph
Humidity: 68%   Direction: 100°E
Pressure: 30.16"   Gusts: NA
Location:  39.15°N, 92.68°W
Report Text: KVER 220315Z AUTO 10005KT 1/2SM HZ VV005 12/06 A3016 RMK AO2 T01200063
Loading
Personal Weather Stations






























Interactive Weather Map
Tropical Storm Tracking
New forecast layout! Learn more

10-Day Weather Forecast

Advertisements
Track Severe Weather on mobile